Time;durP1;ratioP1;P1;durP2;ratioP2;P2;SDS_P1;SDS_P2;PMS_P1;PMS_P2;Temp;Humidity;BMP_temperature;BMP_pressure;BME280_temperature;BME280_humidity;BME280_pressure;Samples;Min_cycle;Max_cycle;Signal;HPM_P1;HPM_P2
2023/01/27 00:02:13;;;;;;;1999.90;999.90;;;4.40;99.90;;;;;;5056647;28;20178;-71
2023/01/27 00:04:39;;;;;;;1999.90;999.90;;;4.40;99.90;;;;;;5056054;28;20183;-71
2023/01/27 00:07:04;;;;;;;1999.90;999.90;;;4.30;99.90;;;;;;5055288;28;20250;-71
2023/01/27 00:09:30;;;;;;;1999.90;999.90;;;4.30;99.90;;;;;;5056224;28;20497;-71
2023/01/27 00:14:40;;;;;;;1999.90;999.90;;;4.20;99.90;;;;;;5056573;28;20195;-71
2023/01/27 00:17:05;;;;;;;1999.90;999.90;;;4.20;99.90;;;;;;5056614;28;20164;-71
2023/01/27 00:19:31;;;;;;;1999.90;999.90;;;4.20;99.90;;;;;;5056537;28;20164;-71
2023/01/27 00:24:41;;;;;;;1999.90;999.90;;;4.20;99.90;;;;;;5056717;28;20195;-71
2023/01/27 00:27:08;;;;;;;1999.90;999.90;;;4.10;99.90;;;;;;5056924;28;20175;-71
2023/01/27 00:29:38;;;;;;;1999.90;999.90;;;4.20;99.90;;;;;;5038721;28;20446;-71
2023/01/27 00:34:48;;;;;;;1999.90;999.90;;;4.20;99.90;;;;;;5058956;28;20941;-71
2023/01/27 00:37:14;;;;;;;1999.90;999.90;;;4.20;99.90;;;;;;5042660;28;20175;-71
2023/01/27 00:39:40;;;;;;;1999.90;999.90;;;4.20;99.90;;;;;;5060093;28;20176;-71
2023/01/27 00:42:05;;;;;;;1999.90;999.90;;;4.20;99.90;;;;;;5060161;28;20229;-71
2023/01/27 00:44:31;;;;;;;1999.90;999.90;;;4.10;99.90;;;;;;5059814;28;20188;-71
2023/01/27 00:46:57;;;;;;;1999.90;999.90;;;4.20;99.90;;;;;;5041975;28;20214;-71
2023/01/27 00:49:22;;;;;;;1999.90;999.90;;;4.20;99.90;;;;;;5060061;28;20164;-71
2023/01/27 00:51:48;;;;;;;1999.90;999.90;;;4.20;99.90;;;;;;5059881;28;20644;-71
2023/01/27 00:54:14;;;;;;;1999.90;999.90;;;4.20;99.90;;;;;;5058980;28;20453;-71
2023/01/27 00:56:39;;;;;;;1999.90;999.90;;;4.20;99.90;;;;;;5059648;28;20245;-71
2023/01/27 00:59:05;;;;;;;1999.90;999.90;;;4.30;99.90;;;;;;5059237;28;20186;-71
2023/01/27 01:01:32;;;;;;;1999.90;999.90;;;4.30;99.90;;;;;;5059921;28;20406;-71
2023/01/27 01:03:58;;;;;;;1999.90;999.90;;;4.40;99.90;;;;;;5059446;28;20504;-71
2023/01/27 01:06:24;;;;;;;1999.90;999.90;;;4.30;99.90;;;;;;5059431;28;20485;-71
2023/01/27 01:08:53;;;;;;;1999.90;999.90;;;4.30;99.90;;;;;;5060124;28;20822;-71
2023/01/27 01:11:20;;;;;;;1999.90;999.90;;;4.30;99.90;;;;;;5059929;28;20216;-71
2023/01/27 01:13:46;;;;;;;1999.90;999.90;;;4.30;99.90;;;;;;5059721;28;20249;-71
2023/01/27 01:16:18;;;;;;;1999.90;999.90;;;4.30;99.90;;;;;;5059887;28;20429;-71
2023/01/27 01:18:44;;;;;;;1999.90;999.90;;;4.40;99.90;;;;;;5059937;28;20405;-71
2023/01/27 01:21:10;;;;;;;1999.90;999.90;;;4.50;99.90;;;;;;5061656;28;20414;-72
2023/01/27 01:23:41;;;;;;;1999.90;999.90;;;4.40;99.90;;;;;;5062041;28;20808;-73
2023/01/27 01:26:09;;;;;;;1999.90;999.90;;;4.40;99.90;;;;;;5060620;28;20453;-72
2023/01/27 01:28:35;;;;;;;1999.90;999.90;;;4.40;99.90;;;;;;5060228;28;20426;-72
2023/01/27 01:31:12;;;;;;;1999.90;999.90;;;4.40;99.90;;;;;;5060857;28;20645;-72
2023/01/27 01:33:38;;;;;;;1999.90;999.90;;;4.40;99.90;;;;;;5059498;28;20266;-72
2023/01/27 01:36:12;;;;;;;1999.90;999.90;;;4.50;99.90;;;;;;5058876;28;20444;-72
2023/01/27 01:38:37;;;;;;;1999.90;999.90;;;4.50;99.90;;;;;;5058853;28;20204;-72
2023/01/27 01:41:09;;;;;;;1999.90;999.90;;;4.50;99.90;;;;;;5060831;28;20433;-73
2023/01/27 01:43:34;;;;;;;1999.90;999.90;;;4.50;99.90;;;;;;5060549;28;20188;-72
2023/01/27 01:46:00;;;;;;;1999.90;999.90;;;4.50;99.90;;;;;;5060558;28;20499;-72
2023/01/27 01:48:46;;;;;;;1999.90;999.90;;;4.50;99.90;;;;;;5061728;28;20574;-72
2023/01/27 01:51:19;;;;;;;1999.90;999.90;;;4.50;99.90;;;;;;5059603;28;20401;-73
2023/01/27 01:54:05;;;;;;;1999.90;999.90;;;4.50;99.90;;;;;;5061013;28;20449;-72
2023/01/27 01:56:38;;;;;;;1999.90;999.90;;;4.50;99.90;;;;;;5060649;28;20406;-72
2023/01/27 01:59:13;;;;;;;1999.90;999.90;;;4.50;99.90;;;;;;5060329;28;20394;-73
2023/01/27 02:01:38;;;;;;;1999.90;999.90;;;4.50;99.90;;;;;;5060791;28;20436;-72
2023/01/27 02:04:11;;;;;;;1999.90;999.90;;;4.50;99.90;;;;;;5061316;28;20434;-72
2023/01/27 02:06:47;;;;;;;1999.90;999.90;;;4.60;99.90;;;;;;5060962;28;20219;-73
2023/01/27 02:09:13;;;;;;;1999.90;999.90;;;4.60;99.90;;;;;;5061471;28;20402;-72
2023/01/27 02:11:39;;;;;;;1999.90;999.90;;;4.60;99.90;;;;;;5060498;28;21048;-72
2023/01/27 02:14:04;;;;;;;1999.90;999.90;;;4.60;99.90;;;;;;5060322;28;20426;-72
2023/01/27 02:16:30;;;;;;;1999.90;999.90;;;4.60;99.90;;;;;;5060734;28;20171;-72
2023/01/27 02:18:56;;;;;;;1999.90;999.90;;;4.60;99.90;;;;;;5060702;28;20176;-72
2023/01/27 02:21:22;;;;;;;1999.90;999.90;;;4.50;99.90;;;;;;5059194;28;20410;-72
2023/01/27 02:24:09;;;;;;;1999.90;999.90;;;4.50;99.90;;;;;;5057834;28;20199;-71
2023/01/27 02:26:41;;;;;;;1999.90;999.90;;;4.40;99.90;;;;;;5057948;28;20199;-73
2023/01/27 02:29:09;;;;;;;1999.90;999.90;;;4.40;99.90;;;;;;5058000;28;20406;-73
2023/01/27 02:31:35;;;;;;;1999.90;999.90;;;4.40;99.90;;;;;;5058178;28;20476;-72
2023/01/27 02:34:10;;;;;;;1999.90;999.90;;;4.40;99.90;;;;;;5039693;28;20426;-72
2023/01/27 02:36:43;;;;;;;1999.90;999.90;;;4.40;99.90;;;;;;5057983;28;20229;-72
2023/01/27 02:39:12;;;;;;;1999.90;999.90;;;4.40;99.90;;;;;;5057443;28;20410;-72
2023/01/27 02:41:44;;;;;;;1999.90;999.90;;;4.50;99.90;;;;;;5057850;28;20414;-71
2023/01/27 02:44:10;;;;;;;1999.90;999.90;;;4.40;99.90;;;;;;5058347;28;20628;-71
2023/01/27 02:46:36;;;;;;;1999.90;999.90;;;4.40;99.90;;;;;;5057641;28;20481;-72
2023/01/27 02:49:02;;;;;;;1999.90;999.90;;;4.40;99.90;;;;;;5057552;28;20489;-69
2023/01/27 02:51:28;;;;;;;1999.90;999.90;;;4.40;99.90;;;;;;5057539;28;20430;-71
2023/01/27 02:53:54;;;;;;;1999.90;999.90;;;4.40;99.90;;;;;;5057956;28;20453;-72
2023/01/27 02:56:19;;;;;;;1999.90;999.90;;;4.40;99.90;;;;;;5057687;28;20263;-72
2023/01/27 02:58:45;;;;;;;1999.90;999.90;;;4.40;99.90;;;;;;5057682;28;20194;-72
2023/01/27 03:01:11;;;;;;;1999.90;999.90;;;4.30;99.90;;;;;;5058307;28;20228;-71
2023/01/27 03:03:42;;;;;;;1999.90;999.90;;;4.30;99.90;;;;;;5058087;28;20194;-71
2023/01/27 03:06:09;;;;;;;1999.90;999.90;;;4.30;99.90;;;;;;5057033;28;20192;-72
2023/01/27 03:08:34;;;;;;;1999.90;999.90;;;4.30;99.90;;;;;;5057544;28;20406;-71
2023/01/27 03:11:00;;;;;;;1999.90;999.90;;;4.30;99.90;;;;;;5057995;28;20790;-72
2023/01/27 03:13:26;;;;;;;1999.90;999.90;;;4.30;99.90;;;;;;5058716;28;20616;-72
2023/01/27 03:18:37;;;;;;;1999.90;999.90;;;4.40;99.90;;;;;;5058200;28;20406;-72
2023/01/27 03:21:05;;;;;;;1999.90;999.90;;;4.40;99.90;;;;;;5057216;28;20414;-72
2023/01/27 03:23:34;;;;;;;1999.90;999.90;;;4.40;99.90;;;;;;5055876;28;20191;-71
2023/01/27 03:26:04;;;;;;;1999.90;999.90;;;4.30;99.90;;;;;;5056027;28;20462;-72
2023/01/27 03:28:30;;;;;;;1999.90;999.90;;;4.30;99.90;;;;;;5055998;28;20168;-72
2023/01/27 03:31:01;;;;;;;1999.90;999.90;;;4.20;99.90;;;;;;5057398;28;20406;-72
2023/01/27 03:33:26;;;;;;;1999.90;999.90;;;4.20;99.90;;;;;;5058404;28;20278;-72
2023/01/27 03:46:49;;;;;;;1999.90;999.90;;;4.00;99.90;;;;;;5054790;28;20253;-72
2023/01/27 03:49:14;;;;;;;1999.90;999.90;;;4.00;99.90;;;;;;5056102;28;20394;-72
2023/01/27 03:51:40;;;;;;;1999.90;999.90;;;4.00;99.90;;;;;;5055397;28;20164;-72
2023/01/27 03:54:05;;;;;;;1999.90;999.90;;;4.00;99.90;;;;;;5055484;28;20230;-73
2023/01/27 03:56:31;;;;;;;1999.90;999.90;;;4.00;99.90;;;;;;5055568;28;20190;-72
2023/01/27 03:58:56;;;;;;;1999.90;999.90;;;3.90;99.90;;;;;;5055760;28;20176;-72
2023/01/27 04:01:23;;;;;;;1999.90;999.90;;;3.90;99.90;;;;;;5054844;28;20191;-72
2023/01/27 04:06:59;;;;;;;1999.90;999.90;;;3.80;99.90;;;;;;5055046;28;20449;-72
2023/01/27 04:09:34;;;;;;;1999.90;999.90;;;3.90;99.90;;;;;;5058125;28;20766;-72
2023/01/27 04:12:04;;;;;;;1999.90;999.90;;;3.90;99.90;;;;;;5059681;28;20195;-72
2023/01/27 04:14:36;;;;;;;1999.90;999.90;;;3.90;99.90;;;;;;5059839;28;20184;-72
2023/01/27 04:17:09;;;;;;;1999.90;999.90;;;3.90;99.90;;;;;;5060530;28;20178;-73
2023/01/27 04:19:35;;;;;;;1999.90;999.90;;;4.00;99.90;;;;;;5061025;28;20422;-72
2023/01/27 04:22:02;;;;;;;1999.90;999.90;;;4.00;99.90;;;;;;5061229;28;20441;-72
2023/01/27 04:24:28;;;;;;;1999.90;999.90;;;4.00;99.90;;;;;;5060214;28;20584;-73
2023/01/27 04:26:58;;;;;;;1999.90;999.90;;;4.00;99.90;;;;;;5061602;28;20548;-73
2023/01/27 04:29:26;;;;;;;1999.90;999.90;;;4.00;99.90;;;;;;5061770;28;20175;-73
2023/01/27 04:31:53;;;;;;;1999.90;999.90;;;4.00;99.90;;;;;;5044443;28;20509;-72
2023/01/27 04:34:18;;;;;;;1999.90;999.90;;;4.00;99.90;;;;;;5062553;28;20199;-72
2023/01/27 04:36:45;;;;;;;1999.90;999.90;;;4.00;99.90;;;;;;5062026;28;20410;-72
2023/01/27 04:39:10;;;;;;;1999.90;999.90;;;4.00;99.90;;;;;;5061095;28;20167;-73
2023/01/27 04:41:36;;;;;;;1999.90;999.90;;;3.90;99.90;;;;;;5063363;28;20183;-72
2023/01/27 04:44:03;;;;;;;1999.90;999.90;;;4.00;99.90;;;;;;5062705;28;20282;-72
2023/01/27 04:46:29;;;;;;;1999.90;999.90;;;3.90;99.90;;;;;;5062589;28;20461;-72
2023/01/27 04:48:55;;;;;;;1999.90;999.90;;;3.90;99.90;;;;;;5062185;28;20167;-72
2023/01/27 04:51:20;;;;;;;1999.90;999.90;;;4.00;99.90;;;;;;5061498;28;20638;-73
2023/01/27 04:53:46;;;;;;;1999.90;999.90;;;4.00;99.90;;;;;;5062187;28;20240;-72
2023/01/27 04:56:38;;;;;;;1999.90;999.90;;;4.00;99.90;;;;;;5062119;28;20182;-71
2023/01/27 04:59:10;;;;;;;1999.90;999.90;;;4.00;99.90;;;;;;5061812;28;20219;-72
2023/01/27 05:01:36;;;;;;;1999.90;999.90;;;4.00;99.90;;;;;;5061564;28;20548;-72
2023/01/27 05:04:02;;;;;;;1999.90;999.90;;;4.00;99.90;;;;;;5061613;28;20223;-71
2023/01/27 05:06:28;;;;;;;1999.90;999.90;;;4.00;99.90;;;;;;5061690;28;20227;-71
2023/01/27 05:08:53;;;;;;;1999.90;999.90;;;4.00;99.90;;;;;;5061275;28;20235;-71
2023/01/27 05:11:20;;;;;;;1999.90;999.90;;;4.00;99.90;;;;;;5061465;28;20402;-72
2023/01/27 05:13:46;;;;;;;1999.90;999.90;;;4.00;99.90;;;;;;5061473;28;20461;-72
2023/01/27 05:16:17;;;;;;;1999.90;999.90;;;3.90;99.90;;;;;;5062189;28;20410;-72
2023/01/27 05:18:44;;;;;;;1999.90;999.90;;;3.90;99.90;;;;;;5061195;28;20159;-73
2023/01/27 05:21:16;;;;;;;1999.90;999.90;;;3.90;99.90;;;;;;5059720;28;20536;-72
2023/01/27 05:23:41;;;;;;;1999.90;999.90;;;4.00;99.90;;;;;;5047915;28;20457;-72
2023/01/27 05:26:18;;;;;;;1999.90;999.90;;;4.00;99.90;;;;;;5040380;28;20462;-72
2023/01/27 05:28:46;;;;;;;1999.90;999.90;;;3.90;99.90;;;;;;5039873;28;20175;-72
2023/01/27 05:31:19;;;;;;;1999.90;999.90;;;4.00;99.90;;;;;;5040256;28;20801;-72
2023/01/27 05:33:46;;;;;;;1999.90;999.90;;;3.90;99.90;;;;;;5040496;28;20419;-72
2023/01/27 05:36:14;;;;;;;1999.90;999.90;;;3.90;99.90;;;;;;5039798;28;20176;-73
2023/01/27 05:38:40;;;;;;;1999.90;999.90;;;4.00;99.90;;;;;;5040204;28;20691;-72
2023/01/27 05:41:08;;;;;;;1999.90;999.90;;;4.00;99.90;;;;;;5040135;28;20658;-73
2023/01/27 05:43:36;;;;;;;1999.90;999.90;;;4.00;99.90;;;;;;5040167;28;20790;-71
2023/01/27 05:46:16;;;;;;;1999.90;999.90;;;3.90;99.90;;;;;;5038509;28;20196;-72
2023/01/27 05:48:50;;;;;;;1999.90;999.90;;;4.00;99.90;;;;;;5038533;28;20414;-72
2023/01/27 05:51:18;;;;;;;1999.90;999.90;;;4.00;99.90;;;;;;5038890;28;20410;-72
2023/01/27 05:53:44;;;;;;;1999.90;999.90;;;4.00;99.90;;;;;;5038537;28;20442;-72
2023/01/27 05:56:12;;;;;;;1999.90;999.90;;;4.00;99.90;;;;;;5020250;28;20423;-72
2023/01/27 05:58:38;;;;;;;1999.90;999.90;;;4.00;99.90;;;;;;5038310;28;20411;-72
2023/01/27 06:01:08;;;;;;;1999.90;999.90;;;4.10;99.90;;;;;;5038764;28;20418;-73
2023/01/27 06:03:33;;;;;;;1999.90;999.90;;;4.00;99.90;;;;;;5039295;28;20435;-72
2023/01/27 06:05:59;;;;;;;1999.90;999.90;;;4.00;99.90;;;;;;5039734;28;20196;-72
2023/01/27 06:08:25;;;;;;;1999.90;999.90;;;4.00;99.90;;;;;;5042125;28;20913;-71
2023/01/27 06:10:52;;;;;;;1999.90;999.90;;;4.00;99.90;;;;;;5041521;28;20167;-71
2023/01/27 06:13:22;;;;;;;1999.90;999.90;;;4.00;99.90;;;;;;5040895;28;20426;-72
2023/01/27 06:15:49;;;;;;;1999.90;999.90;;;4.00;99.90;;;;;;5023017;28;20399;-72
2023/01/27 06:18:16;;;;;;;1999.90;999.90;;;4.10;99.90;;;;;;5039397;28;20411;-72
2023/01/27 06:20:42;;;;;;;1999.90;999.90;;;4.10;99.90;;;;;;5039089;28;20434;-72
2023/01/27 06:23:09;;;;;;;1999.90;999.90;;;4.10;99.90;;;;;;5038237;28;20826;-72
2023/01/27 06:25:36;;;;;;;1999.90;999.90;;;4.10;99.90;;;;;;5038941;28;20810;-73
2023/01/27 06:28:02;;;;;;;1999.90;999.90;;;3.90;99.90;;;;;;5037600;28;20398;-72
2023/01/27 06:30:27;;;;;;;1999.90;999.90;;;3.90;99.90;;;;;;5038555;28;20392;-71
2023/01/27 06:32:54;;;;;;;1999.90;999.90;;;3.90;99.90;;;;;;5038155;28;20164;-72
2023/01/27 06:35:19;;;;;;;1999.90;999.90;;;3.90;99.90;;;;;;5038088;28;20164;-72
2023/01/27 06:37:45;;;;;;;1999.90;999.90;;;3.90;99.90;;;;;;5037132;28;20485;-73
2023/01/27 06:40:11;;;;;;;1999.90;999.90;;;4.00;99.90;;;;;;5037259;28;20172;-73
2023/01/27 06:42:36;;;;;;;1999.90;999.90;;;4.00;99.90;;;;;;5037709;28;20571;-72
2023/01/27 06:45:02;;;;;;;1999.90;999.90;;;4.00;99.90;;;;;;5037968;28;20463;-72
2023/01/27 06:47:28;;;;;;;1999.90;999.90;;;3.90;99.90;;;;;;5038048;28;20222;-71
2023/01/27 06:49:53;;;;;;;1999.90;999.90;;;3.80;99.90;;;;;;5037767;28;20172;-72
2023/01/27 06:52:19;;;;;;;1999.90;999.90;;;3.90;99.90;;;;;;5038406;28;20183;-72
2023/01/27 06:54:44;;;;;;;1999.90;999.90;;;3.90;99.90;;;;;;5037541;28;20208;-71
2023/01/27 06:57:10;;;;;;;1999.90;999.90;;;3.90;99.90;;;;;;5037083;28;20172;-71
2023/01/27 06:59:35;;;;;;;1999.90;999.90;;;3.90;99.90;;;;;;5036456;28;20255;-72
2023/01/27 07:02:01;;;;;;;1999.90;999.90;;;3.80;99.90;;;;;;5036388;28;20171;-72
2023/01/27 07:04:28;;;;;;;1999.90;999.90;;;3.90;99.90;;;;;;5036363;28;20196;-72
2023/01/27 07:06:54;;;;;;;1999.90;999.90;;;3.80;99.90;;;;;;5036685;28;20195;-72
2023/01/27 07:09:19;;;;;;;1999.90;999.90;;;3.80;99.90;;;;;;5035347;28;20168;-72
2023/01/27 07:11:45;;;;;;;1999.90;999.90;;;3.80;99.90;;;;;;5035979;28;20238;-72
2023/01/27 07:14:10;;;;;;;1999.90;999.90;;;3.80;99.90;;;;;;5036644;28;20180;-73
2023/01/27 07:16:36;;;;;;;1999.90;999.90;;;3.80;99.90;;;;;;5032256;28;20172;-72
2023/01/27 07:19:01;;;;;;;1999.90;999.90;;;3.80;99.90;;;;;;5032366;28;20200;-71
2023/01/27 07:21:27;;;;;;;1999.90;999.90;;;3.90;99.90;;;;;;5032164;28;20685;-72
2023/01/27 07:23:52;;;;;;;1999.90;999.90;;;3.90;99.90;;;;;;5032208;28;20192;-71
2023/01/27 07:26:18;;;;;;;1999.90;999.90;;;4.00;99.90;;;;;;5032058;28;20192;-72
2023/01/27 07:28:43;;;;;;;1999.90;999.90;;;3.90;99.90;;;;;;5032185;28;20178;-72
2023/01/27 07:31:09;;;;;;;1999.90;999.90;;;3.90;99.90;;;;;;5031936;28;20168;-72
2023/01/27 07:33:36;;;;;;;1999.90;999.90;;;3.90;99.90;;;;;;5032044;28;20192;-71
2023/01/27 07:36:01;;;;;;;1999.90;999.90;;;3.90;99.90;;;;;;5031979;28;20740;-72
2023/01/27 07:38:27;;;;;;;1999.90;999.90;;;4.00;99.90;;;;;;5032036;28;20258;-72
2023/01/27 07:40:53;;;;;;;1999.90;999.90;;;4.00;99.90;;;;;;5031902;28;20787;-72
2023/01/27 07:43:18;;;;;;;1999.90;999.90;;;4.00;99.90;;;;;;5031643;28;20240;-72
2023/01/27 07:45:47;;;;;;;1999.90;999.90;;;4.10;99.90;;;;;;5032023;28;20203;-71
2023/01/27 07:48:13;;;;;;;1999.90;999.90;;;4.10;99.90;;;;;;5032837;28;20169;-72
2023/01/27 07:50:40;;;;;;;1999.90;999.90;;;4.10;99.90;;;;;;5036415;28;20943;-72
2023/01/27 07:53:06;;;;;;;1999.90;999.90;;;4.20;99.90;;;;;;5036853;28;20971;-72
2023/01/27 07:55:32;;;;;;;1999.90;999.90;;;4.20;99.90;;;;;;5037616;28;20418;-72
2023/01/27 07:57:58;;;;;;;1999.90;999.90;;;4.20;99.90;;;;;;5037780;28;20726;-72
2023/01/27 08:00:24;;;;;;;1999.90;999.90;;;4.30;99.90;;;;;;5036906;28;20231;-71
2023/01/27 08:02:51;;;;;;;1999.90;999.90;;;4.40;99.90;;;;;;5037304;28;20426;-71
2023/01/27 08:05:17;;;;;;;1999.90;999.90;;;4.30;99.90;;;;;;5037717;28;20538;-71
2023/01/27 08:07:42;;;;;;;1999.90;999.90;;;4.30;99.90;;;;;;5037412;28;20500;-71
2023/01/27 08:10:09;;;;;;;1999.90;999.90;;;4.30;99.90;;;;;;5037171;28;20184;-71
2023/01/27 08:12:35;;;;;;;1999.90;999.90;;;4.30;99.90;;;;;;5035973;28;20165;-71
2023/01/27 08:15:00;;;;;;;1999.90;999.90;;;4.30;99.90;;;;;;5037244;28;20415;-71
2023/01/27 08:17:26;;;;;;;1999.90;999.90;;;4.30;99.90;;;;;;5036705;28;20224;-71
2023/01/27 08:19:51;;;;;;;1999.90;999.90;;;4.30;99.90;;;;;;5037142;28;20164;-71
2023/01/27 08:22:20;;;;;;;1999.90;999.90;;;4.40;99.90;;;;;;5037404;28;20167;-71
2023/01/27 08:24:47;;;;;;;1999.90;999.90;;;4.40;99.90;;;;;;5038304;28;20189;-71
2023/01/27 08:27:12;;;;;;;1999.90;999.90;;;4.50;99.90;;;;;;5037776;28;20200;-71
2023/01/27 08:29:38;;;;;;;1999.90;999.90;;;4.60;99.90;;;;;;5037901;28;20668;-71
2023/01/27 08:32:04;;;;;;;1999.90;999.90;;;4.60;99.90;;;;;;5038713;28;20172;-71
2023/01/27 08:34:30;;;;;;;1999.90;999.90;;;4.70;99.90;;;;;;5038568;28;20189;-71
2023/01/27 08:36:56;;;;;;;1999.90;999.90;;;4.70;99.90;;;;;;5037875;28;20407;-71
2023/01/27 08:39:21;;;;;;;1999.90;999.90;;;4.70;99.90;;;;;;5036950;28;20544;-71
2023/01/27 08:41:47;;;;;;;1999.90;999.90;;;4.70;99.90;;;;;;5038314;28;20176;-71
2023/01/27 08:44:12;;;;;;;1999.90;999.90;;;4.80;99.90;;;;;;5037995;28;20580;-71
2023/01/27 08:46:38;;;;;;;1999.90;999.90;;;4.80;99.90;;;;;;5039659;28;20192;-71
2023/01/27 08:49:04;;;;;;;1999.90;999.90;;;4.80;99.90;;;;;;5057415;28;20182;-71
2023/01/27 08:51:29;;;;;;;1999.90;999.90;;;4.80;99.90;;;;;;5057083;28;20163;-71
2023/01/27 08:53:55;;;;;;;1999.90;999.90;;;4.90;99.90;;;;;;5055632;28;20203;-71
2023/01/27 08:56:20;;;;;;;1999.90;999.90;;;4.90;99.90;;;;;;5053689;28;20202;-71
2023/01/27 08:58:47;;;;;;;1999.90;999.90;;;5.00;99.90;;;;;;5054703;28;20172;-71
2023/01/27 09:01:14;;;;;;;1999.90;999.90;;;5.00;99.90;;;;;;5054504;28;20926;-72
2023/01/27 09:03:40;;;;;;;1999.90;999.90;;;5.00;99.90;;;;;;5052361;28;20927;-72
2023/01/27 09:06:08;;;;;;;1999.90;999.90;;;5.00;99.90;;;;;;5043281;28;20533;-72
2023/01/27 09:08:33;;;;;;;1999.90;999.90;;;5.00;99.90;;;;;;5049923;28;20863;-72
2023/01/27 09:10:59;;;;;;;1999.90;999.90;;;4.90;99.90;;;;;;5044435;28;20450;-72
2023/01/27 09:13:27;;;;;;;1999.90;999.90;;;4.90;99.90;;;;;;5038957;28;20192;-71
2023/01/27 09:15:53;;;;;;;1999.90;999.90;;;4.90;99.90;;;;;;5054331;28;20175;-72
2023/01/27 09:18:18;;;;;;;1999.90;999.90;;;5.10;99.90;;;;;;5041393;28;20931;-72
2023/01/27 09:20:44;;;;;;;1999.90;999.90;;;5.20;99.90;;;;;;5054281;28;20407;-72
2023/01/27 09:23:10;;;;;;;1999.90;999.90;;;5.30;99.90;;;;;;5054279;28;20826;-72
2023/01/27 09:25:36;;;;;;;1999.90;999.90;;;5.40;99.90;;;;;;5054119;28;20457;-72
2023/01/27 09:28:01;;;;;;;1999.90;999.90;;;5.40;99.90;;;;;;5054207;28;20164;-72
2023/01/27 09:30:27;;;;;;;1999.90;999.90;;;5.50;99.90;;;;;;5053941;28;20649;-72
2023/01/27 09:32:57;;;;;;;1999.90;999.90;;;5.30;99.90;;;;;;5044093;28;20178;-72
2023/01/27 09:35:24;;;;;;;1999.90;999.90;;;5.50;99.90;;;;;;5050619;28;20418;-72
2023/01/27 09:37:55;;;;;;;1999.90;999.90;;;5.40;99.90;;;;;;5054167;28;20415;-71
2023/01/27 09:40:59;;;;;;;1999.90;999.90;;;5.40;99.90;;;;;;5054088;28;20485;-72
2023/01/27 09:43:25;;;;;;;1999.90;999.90;;;5.40;99.90;;;;;;5053931;28;20487;-71
2023/01/27 09:46:12;;;;;;;1999.90;999.90;;;5.50;99.90;;;;;;5053730;28;20446;-72
2023/01/27 09:49:03;;;;;;;1999.90;999.90;;;5.50;99.90;;;;;;5053889;28;20194;-72
2023/01/27 09:52:18;;;;;;;1999.90;999.90;;;5.50;99.90;;;;;;5053848;28;20405;-72
2023/01/27 09:55:21;;;;;;;1999.90;999.90;;;5.50;99.90;;;;;;4949722;29;20470;-71
2023/01/27 09:58:29;;;;;;;1999.90;999.90;;;5.60;99.90;;;;;;4905693;29;20423;-71
2023/01/27 10:01:31;;;;;;;1999.90;999.90;;;5.60;99.90;;;;;;5053176;28;20406;-71
2023/01/27 10:04:35;;;;;;;1999.90;999.90;;;5.50;99.90;;;;;;5053108;28;20438;-71
2023/01/27 10:07:39;;;;;;;1999.90;999.90;;;5.60;99.90;;;;;;5039372;28;20846;-71
2023/01/27 10:10:10;;;;;;;1999.90;999.90;;;5.60;99.90;;;;;;4952352;29;20554;-71
2023/01/27 10:12:41;;;;;;;1999.90;999.90;;;5.80;99.90;;;;;;4952840;29;20477;-71
2023/01/27 10:15:12;;;;;;;1999.90;999.90;;;5.80;99.90;;;;;;5006040;28;20806;-71
2023/01/27 10:18:04;;;;;;;1999.90;999.90;;;5.80;99.90;;;;;;5052474;28;20421;-71
2023/01/27 10:21:01;;;;;;;1999.90;999.90;;;5.90;99.90;;;;;;5052969;28;20410;-71
2023/01/27 10:23:53;;;;;;;1999.90;999.90;;;5.90;99.90;;;;;;5031355;28;20442;-71
2023/01/27 10:26:36;;;;;;;1999.90;999.90;;;5.80;99.90;;;;;;5052354;28;20454;-71
2023/01/27 10:29:27;;;;;;;1999.90;999.90;;;5.90;99.90;;;;;;5052930;28;20426;-71
2023/01/27 10:32:07;;;;;;;1999.90;999.90;;;5.90;99.90;;;;;;5052476;28;20806;-71
2023/01/27 10:34:45;;;;;;;1999.90;999.90;;;5.90;99.90;;;;;;5053044;28;20426;-71
2023/01/27 10:37:29;;;;;;;1999.90;999.90;;;5.90;99.90;;;;;;5043249;28;20423;-71
2023/01/27 10:40:07;;;;;;;1999.90;999.90;;;5.90;99.90;;;;;;5032447;28;20403;-71
2023/01/27 10:42:56;;;;;;;1999.90;999.90;;;6.00;99.90;;;;;;5032813;28;20379;-70
2023/01/27 10:45:29;;;;;;;1999.90;999.90;;;6.00;99.90;;;;;;5032113;28;20451;-72
2023/01/27 10:48:13;;;;;;;1999.90;999.90;;;6.10;99.90;;;;;;5032002;28;20416;-71
2023/01/27 10:50:42;;;;;;;1999.90;999.90;;;5.70;99.90;;;;;;5032149;28;20414;-71
2023/01/27 10:53:42;;;;;;;1999.90;999.90;;;6.30;99.90;;;;;;5032197;28;20466;-71
2023/01/27 10:56:30;;;;;;;1999.90;999.90;;;6.20;99.90;;;;;;4944230;28;20419;-71
2023/01/27 10:59:36;;;;;;;1999.90;999.90;;;6.30;99.90;;;;;;5032431;28;20449;-74
2023/01/27 11:02:08;;;;;;;1999.90;999.90;;;6.30;99.90;;;;;;5032314;28;20419;-69
2023/01/27 11:04:46;;;;;;;1999.90;999.90;;;6.30;99.90;;;;;;5032262;28;20423;-69
2023/01/27 11:07:20;;;;;;;1999.90;999.90;;;6.40;99.90;;;;;;5032438;28;20454;-68
2023/01/27 11:09:55;;;;;;;1999.90;999.90;;;6.40;99.90;;;;;;5032554;28;20486;-68
2023/01/27 11:12:47;;;;;;;1999.90;999.90;;;6.40;99.90;;;;;;5033335;28;20407;-71
2023/01/27 11:15:26;;;;;;;1999.90;999.90;;;6.40;99.90;;;;;;5032481;28;20410;-71
2023/01/27 11:18:22;;;;;;;1999.90;999.90;;;6.30;99.90;;;;;;5031262;28;20469;-71
2023/01/27 11:20:53;;;;;;;1999.90;999.90;;;6.20;99.90;;;;;;5032015;28;20411;-71
2023/01/27 11:23:30;;;;;;;1999.90;999.90;;;6.20;99.90;;;;;;5031691;28;20546;-71
2023/01/27 11:26:20;;;;;;;1999.90;999.90;;;6.20;99.90;;;;;;5031786;28;20475;-71
2023/01/27 11:29:23;;;;;;;1999.90;999.90;;;6.30;99.90;;;;;;5031455;28;20443;-71
2023/01/27 11:31:51;;;;;;;1999.90;999.90;;;6.40;99.90;;;;;;5032033;28;20901;-71
2023/01/27 11:34:36;;;;;;;1999.90;999.90;;;6.60;99.90;;;;;;5032732;28;20454;-69
2023/01/27 11:37:18;;;;;;;1999.90;999.90;;;6.70;99.90;;;;;;5032002;28;20411;-70
2023/01/27 11:39:44;;;;;;;1999.90;999.90;;;6.80;99.90;;;;;;5031419;28;20399;-71
2023/01/27 11:42:10;;;;;;;1999.90;999.90;;;6.70;99.90;;;;;;5031380;28;20414;-71
2023/01/27 11:44:37;;;;;;;1999.90;999.90;;;7.00;99.90;;;;;;5031843;28;20184;-71
2023/01/27 11:47:06;;;;;;;1999.90;999.90;;;7.10;99.90;;;;;;5030674;28;20459;-71
2023/01/27 11:49:35;;;;;;;1999.90;999.90;;;7.10;99.90;;;;;;5032028;28;21082;-73
2023/01/27 11:52:10;;;;;;;1999.90;999.90;;;7.30;99.90;;;;;;5031563;28;20478;-72
2023/01/27 11:54:43;;;;;;;1999.90;999.90;;;7.20;99.90;;;;;;5031209;28;20525;-72
2023/01/27 11:57:21;;;;;;;1999.90;999.90;;;7.20;99.90;;;;;;5031377;28;20897;-73
2023/01/27 11:59:50;;;;;;;1999.90;999.90;;;7.40;99.90;;;;;;5013686;28;20395;-73
2023/01/27 12:02:41;;;;;;;1999.90;999.90;;;7.40;99.90;;;;;;5031102;28;20516;-73
2023/01/27 12:05:17;;;;;;;1999.90;999.90;;;7.10;99.90;;;;;;5031089;28;20431;-73
2023/01/27 12:07:55;;;;;;;1999.90;999.90;;;7.00;99.90;;;;;;5031199;28;20487;-72
2023/01/27 12:10:41;;;;;;;1999.90;999.90;;;7.20;99.90;;;;;;5031122;28;20434;-72
2023/01/27 12:13:15;;;;;;;1999.90;999.90;;;7.10;99.90;;;;;;5031662;28;20948;-72
2023/01/27 12:15:57;;;;;;;1999.90;999.90;;;7.10;99.90;;;;;;5030719;28;20403;-72
2023/01/27 12:18:23;;;;;;;1999.90;999.90;;;7.20;99.90;;;;;;5031271;28;20776;-72
2023/01/27 12:20:58;;;;;;;1999.90;999.90;;;7.30;99.90;;;;;;5031130;28;20411;-72
2023/01/27 12:23:29;;;;;;;1999.90;999.90;;;7.40;99.90;;;;;;5030710;28;20422;-72
2023/01/27 12:26:00;;;;;;;1999.90;999.90;;;7.50;99.90;;;;;;5030847;28;20443;-72
2023/01/27 12:28:32;;;;;;;1999.90;999.90;;;7.60;99.90;;;;;;5031246;28;20403;-71
2023/01/27 12:31:10;;;;;;;1999.90;999.90;;;7.50;99.20;;;;;;5032792;28;20407;-72
2023/01/27 12:33:39;;;;;;;1999.90;999.90;;;7.70;99.90;;;;;;5034966;28;20411;-72
2023/01/27 12:36:22;;;;;;;1999.90;999.90;;;7.30;99.90;;;;;;5034986;28;20894;-73
2023/01/27 12:38:52;;;;;;;1999.90;999.90;;;7.50;99.00;;;;;;5034663;28;20441;-72
2023/01/27 12:41:29;;;;;;;1999.90;999.90;;;7.40;99.80;;;;;;5034468;28;20776;-72
2023/01/27 12:44:06;;;;;;;1999.90;999.90;;;7.30;99.90;;;;;;5034526;28;20434;-73
2023/01/27 12:46:32;;;;;;;1999.90;999.90;;;7.20;99.90;;;;;;5034024;28;20446;-72
2023/01/27 12:49:09;;;;;;;1999.90;999.90;;;7.20;99.90;;;;;;5034754;28;20930;-73
2023/01/27 12:51:43;;;;;;;1999.90;999.90;;;7.30;99.90;;;;;;5034707;28;20697;-73